sensor_id;sensor_type;location;lat;lon;timestamp;P1;durP1;ratioP1;P2;durP2;ratioP2
7903;SDS011;3997;48.416;8.512;2022-12-10T00:00:21;17.33;;;12.80;;
7903;SDS011;3997;48.416;8.512;2022-12-10T00:02:47;16.08;;;11.77;;
7903;SDS011;3997;48.416;8.512;2022-12-10T00:05:14;16.92;;;12.30;;
7903;SDS011;3997;48.416;8.512;2022-12-10T00:07:41;17.17;;;11.93;;
7903;SDS011;3997;48.416;8.512;2022-12-10T00:10:08;21.30;;;14.93;;
7903;SDS011;3997;48.416;8.512;2022-12-10T00:12:34;20.30;;;14.02;;
7903;SDS011;3997;48.416;8.512;2022-12-10T00:15:01;19.08;;;13.23;;
7903;SDS011;3997;48.416;8.512;2022-12-10T00:17:27;16.85;;;12.10;;
7903;SDS011;3997;48.416;8.512;2022-12-10T00:19:54;16.80;;;13.43;;
7903;SDS011;3997;48.416;8.512;2022-12-10T00:22:20;19.63;;;14.23;;
7903;SDS011;3997;48.416;8.512;2022-12-10T00:24:48;20.50;;;14.60;;
7903;SDS011;3997;48.416;8.512;2022-12-10T00:27:14;21.55;;;13.85;;
7903;SDS011;3997;48.416;8.512;2022-12-10T00:29:42;21.95;;;15.07;;
7903;SDS011;3997;48.416;8.512;2022-12-10T00:32:09;20.00;;;13.95;;
7903;SDS011;3997;48.416;8.512;2022-12-10T00:34:35;20.10;;;13.38;;
7903;SDS011;3997;48.416;8.512;2022-12-10T00:37:02;21.15;;;13.95;;
7903;SDS011;3997;48.416;8.512;2022-12-10T00:39:28;15.38;;;11.40;;
7903;SDS011;3997;48.416;8.512;2022-12-10T00:41:56;16.55;;;12.27;;
7903;SDS011;3997;48.416;8.512;2022-12-10T00:44:22;17.63;;;12.88;;
7903;SDS011;3997;48.416;8.512;2022-12-10T00:46:49;20.95;;;14.73;;
7903;SDS011;3997;48.416;8.512;2022-12-10T00:49:15;22.35;;;13.27;;
7903;SDS011;3997;48.416;8.512;2022-12-10T00:51:42;19.85;;;13.40;;
7903;SDS011;3997;48.416;8.512;2022-12-10T00:54:08;21.02;;;12.98;;
7903;SDS011;3997;48.416;8.512;2022-12-10T00:56:36;20.27;;;13.38;;
7903;SDS011;3997;48.416;8.512;2022-12-10T00:59:04;16.98;;;12.68;;
7903;SDS011;3997;48.416;8.512;2022-12-10T01:01:31;15.30;;;11.50;;
7903;SDS011;3997;48.416;8.512;2022-12-10T01:03:58;19.48;;;12.38;;
7903;SDS011;3997;48.416;8.512;2022-12-10T01:06:26;18.50;;;13.57;;
7903;SDS011;3997;48.416;8.512;2022-12-10T01:08:55;19.42;;;13.02;;
7903;SDS011;3997;48.416;8.512;2022-12-10T01:11:22;21.00;;;14.18;;
7903;SDS011;3997;48.416;8.512;2022-12-10T01:13:50;21.05;;;13.73;;
7903;SDS011;3997;48.416;8.512;2022-12-10T01:16:19;18.88;;;12.95;;
7903;SDS011;3997;48.416;8.512;2022-12-10T01:18:46;20.65;;;13.00;;
7903;SDS011;3997;48.416;8.512;2022-12-10T01:21:14;26.42;;;15.98;;
7903;SDS011;3997;48.416;8.512;2022-12-10T01:23:42;25.63;;;14.05;;
7903;SDS011;3997;48.416;8.512;2022-12-10T01:26:09;22.35;;;13.82;;
7903;SDS011;3997;48.416;8.512;2022-12-10T01:28:37;23.73;;;15.35;;
7903;SDS011;3997;48.416;8.512;2022-12-10T01:31:04;24.40;;;15.23;;
7903;SDS011;3997;48.416;8.512;2022-12-10T01:33:33;25.23;;;14.68;;
7903;SDS011;3997;48.416;8.512;2022-12-10T01:36:01;24.73;;;15.45;;
7903;SDS011;3997;48.416;8.512;2022-12-10T01:38:27;22.92;;;13.70;;
7903;SDS011;3997;48.416;8.512;2022-12-10T01:40:54;21.35;;;14.00;;
7903;SDS011;3997;48.416;8.512;2022-12-10T01:43:20;24.05;;;14.98;;
7903;SDS011;3997;48.416;8.512;2022-12-10T01:45:47;22.80;;;14.32;;
7903;SDS011;3997;48.416;8.512;2022-12-10T01:48:13;26.02;;;14.75;;
7903;SDS011;3997;48.416;8.512;2022-12-10T01:50:41;19.98;;;13.57;;
7903;SDS011;3997;48.416;8.512;2022-12-10T01:53:07;26.27;;;15.98;;
7903;SDS011;3997;48.416;8.512;2022-12-10T01:55:39;28.38;;;15.82;;
7903;SDS011;3997;48.416;8.512;2022-12-10T01:58:06;38.28;;;16.55;;
7903;SDS011;3997;48.416;8.512;2022-12-10T02:00:32;24.35;;;14.63;;
7903;SDS011;3997;48.416;8.512;2022-12-10T02:03:02;26.77;;;14.80;;
7903;SDS011;3997;48.416;8.512;2022-12-10T02:05:32;27.65;;;16.60;;
7903;SDS011;3997;48.416;8.512;2022-12-10T02:08:05;32.17;;;17.60;;
7903;SDS011;3997;48.416;8.512;2022-12-10T02:10:37;26.35;;;14.85;;
7903;SDS011;3997;48.416;8.512;2022-12-10T02:13:05;26.92;;;14.95;;
7903;SDS011;3997;48.416;8.512;2022-12-10T02:15:33;31.05;;;16.15;;
7903;SDS011;3997;48.416;8.512;2022-12-10T02:18:02;31.25;;;15.70;;
7903;SDS011;3997;48.416;8.512;2022-12-10T02:20:30;25.30;;;15.25;;
7903;SDS011;3997;48.416;8.512;2022-12-10T02:22:59;30.52;;;18.38;;
7903;SDS011;3997;48.416;8.512;2022-12-10T02:25:31;43.35;;;16.50;;
7903;SDS011;3997;48.416;8.512;2022-12-10T02:28:01;36.42;;;18.45;;
7903;SDS011;3997;48.416;8.512;2022-12-10T02:30:30;35.75;;;16.58;;
7903;SDS011;3997;48.416;8.512;2022-12-10T02:32:58;54.40;;;15.35;;
7903;SDS011;3997;48.416;8.512;2022-12-10T02:35:25;41.17;;;16.98;;
7903;SDS011;3997;48.416;8.512;2022-12-10T02:37:53;25.73;;;14.93;;
7903;SDS011;3997;48.416;8.512;2022-12-10T02:40:20;29.80;;;16.27;;
7903;SDS011;3997;48.416;8.512;2022-12-10T02:42:50;30.63;;;15.68;;
7903;SDS011;3997;48.416;8.512;2022-12-10T02:45:17;26.70;;;15.68;;
7903;SDS011;3997;48.416;8.512;2022-12-10T02:47:45;34.63;;;16.45;;
7903;SDS011;3997;48.416;8.512;2022-12-10T02:50:12;29.35;;;16.42;;
7903;SDS011;3997;48.416;8.512;2022-12-10T02:52:40;32.53;;;16.38;;
7903;SDS011;3997;48.416;8.512;2022-12-10T02:55:08;28.38;;;16.05;;
7903;SDS011;3997;48.416;8.512;2022-12-10T02:57:36;31.58;;;15.85;;
7903;SDS011;3997;48.416;8.512;2022-12-10T03:00:08;30.05;;;14.95;;
7903;SDS011;3997;48.416;8.512;2022-12-10T03:02:40;30.17;;;15.60;;
7903;SDS011;3997;48.416;8.512;2022-12-10T03:05:14;27.42;;;17.17;;
7903;SDS011;3997;48.416;8.512;2022-12-10T03:07:44;25.20;;;15.45;;
7903;SDS011;3997;48.416;8.512;2022-12-10T03:10:14;33.70;;;16.08;;
7903;SDS011;3997;48.416;8.512;2022-12-10T03:12:43;35.40;;;18.17;;
7903;SDS011;3997;48.416;8.512;2022-12-10T03:15:10;30.48;;;16.45;;
7903;SDS011;3997;48.416;8.512;2022-12-10T03:17:37;24.63;;;14.43;;
7903;SDS011;3997;48.416;8.512;2022-12-10T03:20:05;30.52;;;17.40;;
7903;SDS011;3997;48.416;8.512;2022-12-10T03:22:34;29.13;;;15.15;;
7903;SDS011;3997;48.416;8.512;2022-12-10T03:25:02;25.17;;;14.40;;
7903;SDS011;3997;48.416;8.512;2022-12-10T03:27:29;28.17;;;16.52;;
7903;SDS011;3997;48.416;8.512;2022-12-10T03:29:57;24.45;;;15.20;;
7903;SDS011;3997;48.416;8.512;2022-12-10T03:32:25;31.05;;;16.25;;
7903;SDS011;3997;48.416;8.512;2022-12-10T03:34:52;24.95;;;14.68;;
7903;SDS011;3997;48.416;8.512;2022-12-10T03:37:19;26.63;;;14.80;;
7903;SDS011;3997;48.416;8.512;2022-12-10T03:39:48;34.50;;;15.80;;
7903;SDS011;3997;48.416;8.512;2022-12-10T03:42:15;22.23;;;13.63;;
7903;SDS011;3997;48.416;8.512;2022-12-10T03:44:41;24.77;;;15.13;;
7903;SDS011;3997;48.416;8.512;2022-12-10T03:47:08;22.02;;;14.13;;
7903;SDS011;3997;48.416;8.512;2022-12-10T03:49:37;39.20;;;14.98;;
7903;SDS011;3997;48.416;8.512;2022-12-10T03:52:03;29.17;;;17.10;;
7903;SDS011;3997;48.416;8.512;2022-12-10T03:54:30;28.17;;;16.02;;
7903;SDS011;3997;48.416;8.512;2022-12-10T03:56:58;38.33;;;15.38;;
7903;SDS011;3997;48.416;8.512;2022-12-10T03:59:24;30.85;;;17.23;;
7903;SDS011;3997;48.416;8.512;2022-12-10T04:01:51;22.92;;;14.68;;
7903;SDS011;3997;48.416;8.512;2022-12-10T04:04:17;33.90;;;14.73;;
7903;SDS011;3997;48.416;8.512;2022-12-10T04:06:44;44.50;;;17.15;;
7903;SDS011;3997;48.416;8.512;2022-12-10T04:09:10;22.35;;;14.60;;
7903;SDS011;3997;48.416;8.512;2022-12-10T04:11:37;23.92;;;15.35;;
7903;SDS011;3997;48.416;8.512;2022-12-10T04:14:05;24.83;;;15.48;;
7903;SDS011;3997;48.416;8.512;2022-12-10T04:16:49;24.15;;;14.80;;
7903;SDS011;3997;48.416;8.512;2022-12-10T04:19:16;23.67;;;14.43;;
7903;SDS011;3997;48.416;8.512;2022-12-10T04:21:43;24.15;;;14.93;;
7903;SDS011;3997;48.416;8.512;2022-12-10T04:24:28;26.85;;;16.33;;
7903;SDS011;3997;48.416;8.512;2022-12-10T04:27:13;26.50;;;15.23;;
7903;SDS011;3997;48.416;8.512;2022-12-10T04:29:44;30.52;;;15.82;;
7903;SDS011;3997;48.416;8.512;2022-12-10T04:32:10;29.60;;;17.13;;
7903;SDS011;3997;48.416;8.512;2022-12-10T04:34:37;25.60;;;15.55;;
7903;SDS011;3997;48.416;8.512;2022-12-10T04:37:04;28.08;;;15.90;;
7903;SDS011;3997;48.416;8.512;2022-12-10T04:39:30;25.85;;;15.73;;
7903;SDS011;3997;48.416;8.512;2022-12-10T04:41:57;27.83;;;15.63;;
7903;SDS011;3997;48.416;8.512;2022-12-10T04:44:24;24.23;;;14.05;;
7903;SDS011;3997;48.416;8.512;2022-12-10T04:46:52;25.65;;;16.55;;
7903;SDS011;3997;48.416;8.512;2022-12-10T04:49:18;31.23;;;14.98;;
7903;SDS011;3997;48.416;8.512;2022-12-10T04:51:45;24.08;;;13.93;;
7903;SDS011;3997;48.416;8.512;2022-12-10T04:54:12;25.25;;;15.27;;
7903;SDS011;3997;48.416;8.512;2022-12-10T04:56:38;30.27;;;17.70;;
7903;SDS011;3997;48.416;8.512;2022-12-10T04:59:05;26.25;;;15.68;;
7903;SDS011;3997;48.416;8.512;2022-12-10T05:01:32;25.95;;;15.85;;
7903;SDS011;3997;48.416;8.512;2022-12-10T05:04:00;31.30;;;17.17;;
7903;SDS011;3997;48.416;8.512;2022-12-10T05:06:27;27.35;;;15.63;;
7903;SDS011;3997;48.416;8.512;2022-12-10T05:08:54;30.08;;;18.35;;
7903;SDS011;3997;48.416;8.512;2022-12-10T05:11:21;23.10;;;15.07;;
7903;SDS011;3997;48.416;8.512;2022-12-10T05:13:48;24.73;;;14.73;;
7903;SDS011;3997;48.416;8.512;2022-12-10T05:16:15;26.55;;;15.75;;
7903;SDS011;3997;48.416;8.512;2022-12-10T05:18:42;26.65;;;16.75;;
7903;SDS011;3997;48.416;8.512;2022-12-10T05:21:11;28.35;;;17.65;;
7903;SDS011;3997;48.416;8.512;2022-12-10T05:23:38;27.52;;;16.40;;
7903;SDS011;3997;48.416;8.512;2022-12-10T05:26:05;29.13;;;18.23;;
7903;SDS011;3997;48.416;8.512;2022-12-10T05:28:33;25.75;;;15.63;;
7903;SDS011;3997;48.416;8.512;2022-12-10T05:30:59;24.02;;;14.85;;
7903;SDS011;3997;48.416;8.512;2022-12-10T05:33:26;30.33;;;18.00;;
7903;SDS011;3997;48.416;8.512;2022-12-10T05:35:53;26.27;;;14.50;;
7903;SDS011;3997;48.416;8.512;2022-12-10T05:38:21;24.75;;;15.63;;
7903;SDS011;3997;48.416;8.512;2022-12-10T05:40:47;26.30;;;15.98;;
7903;SDS011;3997;48.416;8.512;2022-12-10T05:43:14;27.80;;;16.83;;
7903;SDS011;3997;48.416;8.512;2022-12-10T05:45:40;22.73;;;15.23;;
7903;SDS011;3997;48.416;8.512;2022-12-10T05:48:08;24.00;;;15.48;;
7903;SDS011;3997;48.416;8.512;2022-12-10T05:50:34;26.98;;;16.38;;
7903;SDS011;3997;48.416;8.512;2022-12-10T05:53:01;23.83;;;15.27;;
7903;SDS011;3997;48.416;8.512;2022-12-10T05:55:29;28.42;;;17.17;;
7903;SDS011;3997;48.416;8.512;2022-12-10T05:57:57;24.00;;;15.13;;
7903;SDS011;3997;48.416;8.512;2022-12-10T06:00:24;23.00;;;15.13;;
7903;SDS011;3997;48.416;8.512;2022-12-10T06:02:51;24.92;;;16.15;;
7903;SDS011;3997;48.416;8.512;2022-12-10T06:05:17;25.98;;;14.75;;
7903;SDS011;3997;48.416;8.512;2022-12-10T06:07:44;24.45;;;15.32;;
7903;SDS011;3997;48.416;8.512;2022-12-10T06:10:10;29.13;;;17.55;;
7903;SDS011;3997;48.416;8.512;2022-12-10T06:12:38;27.48;;;17.55;;
7903;SDS011;3997;48.416;8.512;2022-12-10T06:15:05;23.23;;;14.82;;
7903;SDS011;3997;48.416;8.512;2022-12-10T06:17:32;23.48;;;15.25;;
7903;SDS011;3997;48.416;8.512;2022-12-10T06:19:58;25.13;;;16.52;;
7903;SDS011;3997;48.416;8.512;2022-12-10T06:22:24;29.70;;;16.65;;
7903;SDS011;3997;48.416;8.512;2022-12-10T06:24:51;26.35;;;15.73;;
7903;SDS011;3997;48.416;8.512;2022-12-10T06:27:17;23.92;;;14.80;;
7903;SDS011;3997;48.416;8.512;2022-12-10T06:29:45;26.48;;;16.13;;
7903;SDS011;3997;48.416;8.512;2022-12-10T06:32:11;25.63;;;15.93;;
7903;SDS011;3997;48.416;8.512;2022-12-10T06:34:38;24.67;;;15.98;;
7903;SDS011;3997;48.416;8.512;2022-12-10T06:37:04;28.92;;;18.27;;
7903;SDS011;3997;48.416;8.512;2022-12-10T06:39:31;29.05;;;17.23;;
7903;SDS011;3997;48.416;8.512;2022-12-10T06:41:57;28.38;;;16.80;;
7903;SDS011;3997;48.416;8.512;2022-12-10T06:44:23;24.83;;;15.90;;
7903;SDS011;3997;48.416;8.512;2022-12-10T06:46:51;25.10;;;15.20;;
7903;SDS011;3997;48.416;8.512;2022-12-10T06:49:18;26.67;;;17.35;;
7903;SDS011;3997;48.416;8.512;2022-12-10T06:51:44;23.52;;;15.38;;
7903;SDS011;3997;48.416;8.512;2022-12-10T06:54:10;27.52;;;16.13;;
7903;SDS011;3997;48.416;8.512;2022-12-10T06:56:37;26.85;;;15.82;;
7903;SDS011;3997;48.416;8.512;2022-12-10T06:59:03;28.58;;;18.17;;
7903;SDS011;3997;48.416;8.512;2022-12-10T07:01:31;28.48;;;16.90;;
7903;SDS011;3997;48.416;8.512;2022-12-10T07:03:59;33.00;;;19.50;;
7903;SDS011;3997;48.416;8.512;2022-12-10T07:06:25;24.63;;;16.48;;
7903;SDS011;3997;48.416;8.512;2022-12-10T07:08:53;28.02;;;16.42;;
7903;SDS011;3997;48.416;8.512;2022-12-10T07:11:20;26.60;;;16.85;;
7903;SDS011;3997;48.416;8.512;2022-12-10T07:13:47;23.70;;;15.38;;
7903;SDS011;3997;48.416;8.512;2022-12-10T07:16:14;33.63;;;19.20;;
7903;SDS011;3997;48.416;8.512;2022-12-10T07:18:40;26.58;;;17.10;;
7903;SDS011;3997;48.416;8.512;2022-12-10T07:21:18;24.38;;;16.88;;
7903;SDS011;3997;48.416;8.512;2022-12-10T07:23:45;26.48;;;16.45;;
7903;SDS011;3997;48.416;8.512;2022-12-10T07:26:11;22.77;;;15.80;;
7903;SDS011;3997;48.416;8.512;2022-12-10T07:28:38;23.17;;;15.60;;
7903;SDS011;3997;48.416;8.512;2022-12-10T07:31:05;26.38;;;17.13;;
7903;SDS011;3997;48.416;8.512;2022-12-10T07:33:32;25.85;;;16.80;;
7903;SDS011;3997;48.416;8.512;2022-12-10T07:35:59;26.02;;;17.70;;
7903;SDS011;3997;48.416;8.512;2022-12-10T07:38:27;24.80;;;15.88;;
7903;SDS011;3997;48.416;8.512;2022-12-10T07:40:53;22.70;;;15.35;;
7903;SDS011;3997;48.416;8.512;2022-12-10T07:43:19;29.50;;;16.92;;
7903;SDS011;3997;48.416;8.512;2022-12-10T07:45:46;23.80;;;15.48;;
7903;SDS011;3997;48.416;8.512;2022-12-10T07:48:12;24.38;;;16.13;;
7903;SDS011;3997;48.416;8.512;2022-12-10T07:50:39;24.17;;;17.23;;
7903;SDS011;3997;48.416;8.512;2022-12-10T07:53:06;24.52;;;15.43;;
7903;SDS011;3997;48.416;8.512;2022-12-10T07:55:34;21.08;;;15.20;;
7903;SDS011;3997;48.416;8.512;2022-12-10T07:58:00;22.42;;;15.73;;
7903;SDS011;3997;48.416;8.512;2022-12-10T08:00:27;24.63;;;15.90;;
7903;SDS011;3997;48.416;8.512;2022-12-10T08:02:53;21.17;;;14.10;;
7903;SDS011;3997;48.416;8.512;2022-12-10T08:05:19;21.83;;;14.23;;
7903;SDS011;3997;48.416;8.512;2022-12-10T08:07:46;23.02;;;16.23;;
7903;SDS011;3997;48.416;8.512;2022-12-10T08:10:15;22.25;;;16.58;;
7903;SDS011;3997;48.416;8.512;2022-12-10T08:12:43;26.95;;;17.98;;
7903;SDS011;3997;48.416;8.512;2022-12-10T08:15:10;24.10;;;15.02;;
7903;SDS011;3997;48.416;8.512;2022-12-10T08:17:36;21.75;;;15.27;;
7903;SDS011;3997;48.416;8.512;2022-12-10T08:20:03;22.52;;;16.45;;
7903;SDS011;3997;48.416;8.512;2022-12-10T08:22:29;21.42;;;14.95;;
7903;SDS011;3997;48.416;8.512;2022-12-10T08:24:56;22.10;;;15.93;;
7903;SDS011;3997;48.416;8.512;2022-12-10T08:27:22;23.50;;;17.05;;
7903;SDS011;3997;48.416;8.512;2022-12-10T08:29:50;23.33;;;15.65;;
7903;SDS011;3997;48.416;8.512;2022-12-10T08:32:16;21.98;;;15.40;;
7903;SDS011;3997;48.416;8.512;2022-12-10T08:34:43;22.30;;;16.10;;
7903;SDS011;3997;48.416;8.512;2022-12-10T08:37:09;21.08;;;14.68;;
7903;SDS011;3997;48.416;8.512;2022-12-10T08:39:35;22.33;;;16.05;;
7903;SDS011;3997;48.416;8.512;2022-12-10T08:42:02;23.67;;;16.10;;
7903;SDS011;3997;48.416;8.512;2022-12-10T08:44:28;20.42;;;14.50;;
7903;SDS011;3997;48.416;8.512;2022-12-10T08:46:56;20.80;;;13.88;;
7903;SDS011;3997;48.416;8.512;2022-12-10T08:49:23;21.67;;;15.02;;
7903;SDS011;3997;48.416;8.512;2022-12-10T08:51:49;20.20;;;14.38;;
7903;SDS011;3997;48.416;8.512;2022-12-10T08:54:15;23.13;;;14.55;;
7903;SDS011;3997;48.416;8.512;2022-12-10T08:56:42;18.40;;;13.73;;
7903;SDS011;3997;48.416;8.512;2022-12-10T08:59:08;20.27;;;14.88;;
7903;SDS011;3997;48.416;8.512;2022-12-10T09:01:35;21.85;;;13.98;;
7903;SDS011;3997;48.416;8.512;2022-12-10T09:04:03;20.35;;;14.68;;
7903;SDS011;3997;48.416;8.512;2022-12-10T09:06:29;18.85;;;14.43;;
7903;SDS011;3997;48.416;8.512;2022-12-10T09:08:56;23.40;;;16.30;;
7903;SDS011;3997;48.416;8.512;2022-12-10T09:11:23;19.92;;;14.27;;
7903;SDS011;3997;48.416;8.512;2022-12-10T09:13:50;19.88;;;14.00;;
7903;SDS011;3997;48.416;8.512;2022-12-10T09:16:16;21.55;;;15.07;;
7903;SDS011;3997;48.416;8.512;2022-12-10T09:18:43;20.80;;;16.20;;
7903;SDS011;3997;48.416;8.512;2022-12-10T09:21:11;20.50;;;14.82;;
7903;SDS011;3997;48.416;8.512;2022-12-10T09:23:38;20.10;;;15.13;;
7903;SDS011;3997;48.416;8.512;2022-12-10T09:26:05;20.67;;;14.80;;
7903;SDS011;3997;48.416;8.512;2022-12-10T09:28:32;19.23;;;14.02;;
7903;SDS011;3997;48.416;8.512;2022-12-10T09:31:00;17.52;;;12.80;;
7903;SDS011;3997;48.416;8.512;2022-12-10T09:33:27;21.98;;;14.63;;
7903;SDS011;3997;48.416;8.512;2022-12-10T09:35:53;19.85;;;15.05;;
7903;SDS011;3997;48.416;8.512;2022-12-10T09:38:21;19.98;;;13.90;;
7903;SDS011;3997;48.416;8.512;2022-12-10T09:40:50;20.38;;;14.20;;
7903;SDS011;3997;48.416;8.512;2022-12-10T09:43:19;19.92;;;12.90;;
7903;SDS011;3997;48.416;8.512;2022-12-10T09:45:51;18.60;;;13.10;;
7903;SDS011;3997;48.416;8.512;2022-12-10T09:48:20;21.08;;;15.00;;
7903;SDS011;3997;48.416;8.512;2022-12-10T09:50:51;18.42;;;13.20;;
7903;SDS011;3997;48.416;8.512;2022-12-10T09:53:19;18.27;;;12.90;;
7903;SDS011;3997;48.416;8.512;2022-12-10T09:55:50;18.63;;;13.38;;
7903;SDS011;3997;48.416;8.512;2022-12-10T09:58:17;17.40;;;13.68;;
7903;SDS011;3997;48.416;8.512;2022-12-10T10:00:44;17.98;;;12.38;;
7903;SDS011;3997;48.416;8.512;2022-12-10T10:03:12;17.15;;;12.68;;
7903;SDS011;3997;48.416;8.512;2022-12-10T10:05:40;15.63;;;12.40;;
7903;SDS011;3997;48.416;8.512;2022-12-10T10:08:11;20.70;;;12.23;;
7903;SDS011;3997;48.416;8.512;2022-12-10T10:10:39;16.27;;;12.32;;
7903;SDS011;3997;48.416;8.512;2022-12-10T10:13:14;16.80;;;11.88;;
7903;SDS011;3997;48.416;8.512;2022-12-10T10:15:43;16.17;;;11.23;;
7903;SDS011;3997;48.416;8.512;2022-12-10T10:18:13;16.25;;;11.25;;
7903;SDS011;3997;48.416;8.512;2022-12-10T10:20:40;15.30;;;11.20;;
7903;SDS011;3997;48.416;8.512;2022-12-10T10:23:07;18.42;;;10.80;;
7903;SDS011;3997;48.416;8.512;2022-12-10T10:25:34;15.30;;;11.35;;
7903;SDS011;3997;48.416;8.512;2022-12-10T10:28:01;14.60;;;11.32;;
7903;SDS011;3997;48.416;8.512;2022-12-10T10:30:29;16.40;;;11.57;;
7903;SDS011;3997;48.416;8.512;2022-12-10T10:32:56;16.25;;;11.55;;
7903;SDS011;3997;48.416;8.512;2022-12-10T10:35:24;14.85;;;12.45;;
7903;SDS011;3997;48.416;8.512;2022-12-10T10:37:51;12.63;;;10.13;;
7903;SDS011;3997;48.416;8.512;2022-12-10T10:40:22;13.32;;;9.90;;
7903;SDS011;3997;48.416;8.512;2022-12-10T10:42:51;15.07;;;9.95;;
7903;SDS011;3997;48.416;8.512;2022-12-10T10:45:33;15.35;;;10.35;;
7903;SDS011;3997;48.416;8.512;2022-12-10T10:48:04;12.38;;;9.48;;
7903;SDS011;3997;48.416;8.512;2022-12-10T10:50:32;13.40;;;9.23;;
7903;SDS011;3997;48.416;8.512;2022-12-10T10:53:09;16.08;;;11.35;;
7903;SDS011;3997;48.416;8.512;2022-12-10T10:55:45;14.02;;;10.05;;
7903;SDS011;3997;48.416;8.512;2022-12-10T10:58:15;13.63;;;10.32;;
7903;SDS011;3997;48.416;8.512;2022-12-10T11:00:44;14.30;;;9.95;;
7903;SDS011;3997;48.416;8.512;2022-12-10T11:03:18;15.52;;;11.82;;
7903;SDS011;3997;48.416;8.512;2022-12-10T11:05:46;12.55;;;9.45;;
7903;SDS011;3997;48.416;8.512;2022-12-10T11:08:13;12.30;;;9.02;;
7903;SDS011;3997;48.416;8.512;2022-12-10T11:10:45;12.40;;;9.57;;
7903;SDS011;3997;48.416;8.512;2022-12-10T11:13:18;11.20;;;9.02;;
7903;SDS011;3997;48.416;8.512;2022-12-10T11:15:47;12.23;;;9.10;;
7903;SDS011;3997;48.416;8.512;2022-12-10T11:18:24;12.45;;;9.43;;
7903;SDS011;3997;48.416;8.512;2022-12-10T11:20:57;15.03;;;10.07;;
7903;SDS011;3997;48.416;8.512;2022-12-10T11:23:26;15.40;;;9.95;;
7903;SDS011;3997;48.416;8.512;2022-12-10T11:25:55;13.50;;;8.85;;
7903;SDS011;3997;48.416;8.512;2022-12-10T11:28:28;12.25;;;8.85;;
7903;SDS011;3997;48.416;8.512;2022-12-10T11:30:59;11.88;;;8.38;;
7903;SDS011;3997;48.416;8.512;2022-12-10T11:33:30;11.15;;;8.98;;
7903;SDS011;3997;48.416;8.512;2022-12-10T11:36:00;13.68;;;9.40;;
7903;SDS011;3997;48.416;8.512;2022-12-10T11:38:32;11.77;;;9.13;;
7903;SDS011;3997;48.416;8.512;2022-12-10T11:41:07;10.30;;;7.43;;
7903;SDS011;3997;48.416;8.512;2022-12-10T11:43:45;9.23;;;7.40;;
7903;SDS011;3997;48.416;8.512;2022-12-10T11:46:30;9.45;;;5.55;;
7903;SDS011;3997;48.416;8.512;2022-12-10T11:49:02;10.23;;;7.20;;
7903;SDS011;3997;48.416;8.512;2022-12-10T11:51:33;10.82;;;7.90;;
7903;SDS011;3997;48.416;8.512;2022-12-10T11:54:09;10.18;;;7.65;;
7903;SDS011;3997;48.416;8.512;2022-12-10T11:56:38;10.88;;;7.47;;
7903;SDS011;3997;48.416;8.512;2022-12-10T11:59:08;10.65;;;8.07;;
7903;SDS011;3997;48.416;8.512;2022-12-10T12:01:42;10.48;;;7.72;;
7903;SDS011;3997;48.416;8.512;2022-12-10T12:04:25;10.88;;;8.10;;
7903;SDS011;3997;48.416;8.512;2022-12-10T12:06:57;11.25;;;8.35;;
7903;SDS011;3997;48.416;8.512;2022-12-10T12:09:29;13.10;;;8.35;;
7903;SDS011;3997;48.416;8.512;2022-12-10T12:12:03;20.75;;;15.27;;
7903;SDS011;3997;48.416;8.512;2022-12-10T12:14:34;12.05;;;8.05;;
7903;SDS011;3997;48.416;8.512;2022-12-10T12:17:05;15.88;;;11.27;;
7903;SDS011;3997;48.416;8.512;2022-12-10T12:19:34;13.32;;;10.82;;
7903;SDS011;3997;48.416;8.512;2022-12-10T12:22:03;15.18;;;10.27;;
7903;SDS011;3997;48.416;8.512;2022-12-10T12:24:32;9.23;;;8.07;;
7903;SDS011;3997;48.416;8.512;2022-12-10T12:27:00;10.38;;;8.20;;
7903;SDS011;3997;48.416;8.512;2022-12-10T12:29:29;17.75;;;12.02;;
7903;SDS011;3997;48.416;8.512;2022-12-10T12:31:57;24.83;;;17.27;;
7903;SDS011;3997;48.416;8.512;2022-12-10T12:34:29;19.27;;;12.30;;
7903;SDS011;3997;48.416;8.512;2022-12-10T12:36:58;19.40;;;13.73;;
7903;SDS011;3997;48.416;8.512;2022-12-10T12:39:27;15.13;;;9.00;;
7903;SDS011;3997;48.416;8.512;2022-12-10T12:41:55;27.48;;;21.63;;
7903;SDS011;3997;48.416;8.512;2022-12-10T12:44:26;22.23;;;16.65;;
7903;SDS011;3997;48.416;8.512;2022-12-10T12:46:55;11.27;;;7.97;;
7903;SDS011;3997;48.416;8.512;2022-12-10T12:49:23;14.73;;;10.73;;
7903;SDS011;3997;48.416;8.512;2022-12-10T12:51:53;12.60;;;9.48;;
7903;SDS011;3997;48.416;8.512;2022-12-10T12:54:21;10.48;;;8.68;;
7903;SDS011;3997;48.416;8.512;2022-12-10T12:56:53;13.45;;;9.82;;
7903;SDS011;3997;48.416;8.512;2022-12-10T12:59:24;12.27;;;9.52;;
7903;SDS011;3997;48.416;8.512;2022-12-10T13:01:54;14.27;;;9.60;;
7903;SDS011;3997;48.416;8.512;2022-12-10T13:04:23;11.30;;;8.38;;
7903;SDS011;3997;48.416;8.512;2022-12-10T13:09:32;12.00;;;9.18;;
7903;SDS011;3997;48.416;8.512;2022-12-10T13:12:24;11.00;;;8.35;;
7903;SDS011;3997;48.416;8.512;2022-12-10T13:15:00;10.07;;;8.05;;
7903;SDS011;3997;48.416;8.512;2022-12-10T13:17:28;9.95;;;8.50;;
7903;SDS011;3997;48.416;8.512;2022-12-10T13:22:41;9.80;;;8.00;;
7903;SDS011;3997;48.416;8.512;2022-12-10T13:25:12;11.63;;;7.38;;
7903;SDS011;3997;48.416;8.512;2022-12-10T13:27:39;12.32;;;7.70;;
7903;SDS011;3997;48.416;8.512;2022-12-10T13:30:26;10.45;;;7.82;;
7903;SDS011;3997;48.416;8.512;2022-12-10T13:32:53;8.85;;;7.30;;
7903;SDS011;3997;48.416;8.512;2022-12-10T13:35:30;10.75;;;7.43;;
7903;SDS011;3997;48.416;8.512;2022-12-10T13:37:59;11.30;;;7.40;;
7903;SDS011;3997;48.416;8.512;2022-12-10T13:40:37;9.77;;;7.60;;
7903;SDS011;3997;48.416;8.512;2022-12-10T13:43:22;10.10;;;7.97;;
7903;SDS011;3997;48.416;8.512;2022-12-10T13:46:21;10.45;;;7.20;;
7903;SDS011;3997;48.416;8.512;2022-12-10T13:48:47;8.77;;;7.22;;
7903;SDS011;3997;48.416;8.512;2022-12-10T13:51:20;10.15;;;6.95;;
7903;SDS011;3997;48.416;8.512;2022-12-10T13:53:50;11.60;;;8.90;;
7903;SDS011;3997;48.416;8.512;2022-12-10T13:56:24;12.77;;;9.70;;
7903;SDS011;3997;48.416;8.512;2022-12-10T13:58:55;14.07;;;10.55;;
7903;SDS011;3997;48.416;8.512;2022-12-10T14:01:28;19.45;;;13.88;;
7903;SDS011;3997;48.416;8.512;2022-12-10T14:06:41;23.65;;;15.13;;
7903;SDS011;3997;48.416;8.512;2022-12-10T14:09:10;29.17;;;16.55;;
7903;SDS011;3997;48.416;8.512;2022-12-10T14:11:39;25.73;;;15.68;;
7903;SDS011;3997;48.416;8.512;2022-12-10T14:14:08;22.13;;;12.77;;
7903;SDS011;3997;48.416;8.512;2022-12-10T14:16:36;24.05;;;15.50;;
7903;SDS011;3997;48.416;8.512;2022-12-10T14:19:03;27.70;;;16.15;;
7903;SDS011;3997;48.416;8.512;2022-12-10T14:21:31;19.80;;;12.55;;
7903;SDS011;3997;48.416;8.512;2022-12-10T14:23:58;14.80;;;10.32;;
7903;SDS011;3997;48.416;8.512;2022-12-10T14:26:26;16.52;;;9.05;;
7903;SDS011;3997;48.416;8.512;2022-12-10T14:28:55;11.38;;;8.40;;
7903;SDS011;3997;48.416;8.512;2022-12-10T14:31:24;9.82;;;7.95;;
7903;SDS011;3997;48.416;8.512;2022-12-10T14:33:52;10.73;;;8.32;;
7903;SDS011;3997;48.416;8.512;2022-12-10T14:36:23;15.57;;;11.18;;
7903;SDS011;3997;48.416;8.512;2022-12-10T14:38:51;9.35;;;7.22;;
7903;SDS011;3997;48.416;8.512;2022-12-10T14:41:18;11.27;;;7.63;;
7903;SDS011;3997;48.416;8.512;2022-12-10T14:43:46;11.55;;;6.78;;
7903;SDS011;3997;48.416;8.512;2022-12-10T14:46:15;9.68;;;6.95;;
7903;SDS011;3997;48.416;8.512;2022-12-10T14:48:43;9.05;;;6.55;;
7903;SDS011;3997;48.416;8.512;2022-12-10T14:51:12;9.18;;;6.15;;
7903;SDS011;3997;48.416;8.512;2022-12-10T14:53:39;8.60;;;6.40;;
7903;SDS011;3997;48.416;8.512;2022-12-10T14:56:06;9.25;;;6.45;;
7903;SDS011;3997;48.416;8.512;2022-12-10T14:58:35;7.70;;;6.30;;
7903;SDS011;3997;48.416;8.512;2022-12-10T15:01:03;10.00;;;6.80;;
7903;SDS011;3997;48.416;8.512;2022-12-10T15:03:31;9.02;;;6.68;;
7903;SDS011;3997;48.416;8.512;2022-12-10T15:05:59;8.18;;;6.85;;